Time;durP1;ratioP1;P1;durP2;ratioP2;P2;SDS_P1;SDS_P2;PMS_P1;PMS_P2;Temp;Humidity;BMP_temperature;BMP_pressure;BME280_temperature;BME280_humidity;BME280_pressure;Samples;Min_cycle;Max_cycle;Signal;HPM_P1;HPM_P2
2023/10/06 00:00:26;;;;;;;3.87;1.77;;;;;;;;;;5120985;28;20228;-64
2023/10/06 00:02:54;;;;;;;4.30;2.40;;;;;;;;;;5121064;28;20210;-63
2023/10/06 00:05:23;;;;;;;2.90;2.40;;;;;;;;;;5121052;28;20212;-65
2023/10/06 00:07:51;;;;;;;3.53;2.33;;;;;;;;;;5120662;28;20691;-64
2023/10/06 00:10:21;;;;;;;3.07;2.57;;;;;;;;;;5120716;28;20221;-65
2023/10/06 00:12:54;;;;;;;2.27;1.70;;;;;;;;;;5120855;28;20299;-63
2023/10/06 00:15:26;;;;;;;2.93;1.90;;;;;;;;;;5120932;28;20559;-63
2023/10/06 00:17:59;;;;;;;4.33;2.23;;;;;;;;;;5120821;28;20207;-63
2023/10/06 00:20:38;;;;;;;3.50;2.10;;;;;;;;;;5120736;28;20225;-64
2023/10/06 00:23:08;;;;;;;2.73;1.97;;;;;;;;;;5120724;28;20204;-64
2023/10/06 00:25:37;;;;;;;4.73;2.40;;;;;;;;;;5120482;27;20201;-64
2023/10/06 00:28:13;;;;;;;4.40;2.17;;;;;;;;;;5120313;28;20256;-65
2023/10/06 00:30:46;;;;;;;4.00;2.10;;;;;;;;;;5119362;28;20228;-65
2023/10/06 00:33:14;;;;;;;4.87;2.07;;;;;;;;;;5120345;28;20853;-64
2023/10/06 00:35:44;;;;;;;2.67;2.40;;;;;;;;;;5120516;28;20284;-64
2023/10/06 00:38:16;;;;;;;4.07;2.10;;;;;;;;;;5120137;28;20721;-64
2023/10/06 00:40:50;;;;;;;3.77;2.20;;;;;;;;;;5119694;28;20715;-65
2023/10/06 00:43:34;;;;;;;4.30;2.33;;;;;;;;;;5120445;28;20207;-65
2023/10/06 00:46:06;;;;;;;5.70;2.63;;;;;;;;;;5120374;28;20211;-65
2023/10/06 00:48:36;;;;;;;6.33;2.60;;;;;;;;;;5120119;28;20213;-64
2023/10/06 00:51:05;;;;;;;6.33;2.67;;;;;;;;;;5120148;27;20233;-64
2023/10/06 00:53:33;;;;;;;5.20;2.93;;;;;;;;;;5119772;28;20769;-64
2023/10/06 00:56:02;;;;;;;5.87;3.07;;;;;;;;;;5119848;28;20234;-64
2023/10/06 00:58:34;;;;;;;7.97;3.77;;;;;;;;;;5120074;28;20232;-64
2023/10/06 01:01:06;;;;;;;6.80;3.70;;;;;;;;;;5119613;28;20225;-64
2023/10/06 01:03:38;;;;;;;5.00;2.30;;;;;;;;;;5120054;28;20200;-65
2023/10/06 01:06:12;;;;;;;4.37;2.27;;;;;;;;;;5119689;28;20216;-64
2023/10/06 01:08:45;;;;;;;4.03;2.40;;;;;;;;;;5119463;28;20289;-64
2023/10/06 01:11:16;;;;;;;5.67;3.00;;;;;;;;;;5117016;28;20232;-64
2023/10/06 01:13:55;;;;;;;5.93;3.87;;;;;;;;;;5111039;28;20239;-65
2023/10/06 01:16:29;;;;;;;9.50;5.37;;;;;;;;;;5119629;27;20200;-65
2023/10/06 01:19:14;;;;;;;11.57;7.50;;;;;;;;;;5119664;28;20206;-65
2023/10/06 01:21:45;;;;;;;10.97;7.40;;;;;;;;;;5119258;28;20723;-65
2023/10/06 01:24:15;;;;;;;11.33;5.77;;;;;;;;;;5119142;28;20250;-65
2023/10/06 01:26:43;;;;;;;6.83;4.30;;;;;;;;;;5119254;28;20216;-64
2023/10/06 01:29:13;;;;;;;5.67;3.20;;;;;;;;;;5119048;28;20225;-65
2023/10/06 01:31:41;;;;;;;4.10;3.67;;;;;;;;;;5119183;28;20259;-65
2023/10/06 01:34:11;;;;;;;4.77;3.13;;;;;;;;;;5119194;28;20243;-65
2023/10/06 01:36:39;;;;;;;4.23;2.80;;;;;;;;;;5111279;28;20254;-64
2023/10/06 01:39:16;;;;;;;5.07;2.80;;;;;;;;;;5119072;28;20284;-65
2023/10/06 01:41:47;;;;;;;4.70;2.63;;;;;;;;;;5118560;28;20221;-65
2023/10/06 01:44:15;;;;;;;3.57;2.40;;;;;;;;;;5119073;27;20296;-65
2023/10/06 01:46:44;;;;;;;7.33;3.03;;;;;;;;;;5119013;28;20724;-65
2023/10/06 01:49:14;;;;;;;3.97;2.60;;;;;;;;;;5118631;28;20236;-65
2023/10/06 01:51:42;;;;;;;6.43;3.00;;;;;;;;;;5119455;28;20224;-65
2023/10/06 01:54:27;;;;;;;4.63;2.93;;;;;;;;;;5118509;28;20244;-63
2023/10/06 01:56:57;;;;;;;7.20;3.03;;;;;;;;;;5118400;28;20205;-65
2023/10/06 01:59:24;;;;;;;5.27;3.30;;;;;;;;;;5118738;28;20655;-66
2023/10/06 02:01:52;;;;;;;4.20;2.70;;;;;;;;;;5118835;28;20267;-65
2023/10/06 02:04:25;;;;;;;8.37;2.67;;;;;;;;;;5118775;28;20211;-66
2023/10/06 02:06:53;;;;;;;5.60;3.20;;;;;;;;;;5118775;28;20204;-65
2023/10/06 02:09:25;;;;;;;6.27;2.80;;;;;;;;;;5118520;28;20220;-65
2023/10/06 02:11:55;;;;;;;7.10;3.17;;;;;;;;;;5118421;28;20224;-65
2023/10/06 02:14:24;;;;;;;7.60;2.73;;;;;;;;;;5118396;28;20559;-66
2023/10/06 02:16:55;;;;;;;3.33;2.80;;;;;;;;;;5118708;28;20220;-66
2023/10/06 02:19:28;;;;;;;4.70;2.67;;;;;;;;;;5118582;28;20197;-66
2023/10/06 02:21:56;;;;;;;5.10;2.37;;;;;;;;;;5118681;28;20270;-66
2023/10/06 02:24:24;;;;;;;6.40;2.63;;;;;;;;;;5118457;28;20211;-66
2023/10/06 02:26:58;;;;;;;7.03;2.70;;;;;;;;;;5118308;28;20211;-66
2023/10/06 02:29:28;;;;;;;5.17;2.17;;;;;;;;;;5118318;28;20289;-66
2023/10/06 02:32:01;;;;;;;5.00;2.37;;;;;;;;;;5118512;28;20223;-65
2023/10/06 02:34:35;;;;;;;9.33;2.77;;;;;;;;;;5118316;28;20254;-66
2023/10/06 02:37:04;;;;;;;5.00;2.67;;;;;;;;;;5118378;28;20199;-66
2023/10/06 02:39:34;;;;;;;4.23;2.47;;;;;;;;;;5118003;28;20200;-66
2023/10/06 02:42:07;;;;;;;6.03;2.30;;;;;;;;;;5117976;28;20225;-65
2023/10/06 02:44:40;;;;;;;5.10;2.97;;;;;;;;;;5118549;28;20299;-66
2023/10/06 02:47:10;;;;;;;5.57;2.60;;;;;;;;;;5118102;28;20215;-65
2023/10/06 02:49:40;;;;;;;4.27;2.40;;;;;;;;;;5117969;28;20707;-65
2023/10/06 02:52:20;;;;;;;4.00;2.80;;;;;;;;;;5118332;28;20728;-65
2023/10/06 02:54:56;;;;;;;4.10;2.40;;;;;;;;;;5121875;28;20236;-66
2023/10/06 02:57:25;;;;;;;4.67;2.83;;;;;;;;;;5122395;28;20214;-65
2023/10/06 02:59:57;;;;;;;6.70;2.60;;;;;;;;;;5122243;28;20196;-65
2023/10/06 03:02:26;;;;;;;5.73;2.60;;;;;;;;;;5122329;28;20205;-65
2023/10/06 03:05:10;;;;;;;6.17;2.70;;;;;;;;;;5122321;28;20261;-65
2023/10/06 03:07:38;;;;;;;4.30;2.43;;;;;;;;;;5122115;28;20238;-65
2023/10/06 03:10:08;;;;;;;4.43;2.77;;;;;;;;;;5121878;28;20325;-63
2023/10/06 03:12:39;;;;;;;5.23;2.77;;;;;;;;;;5121888;28;20567;-65
2023/10/06 03:15:28;;;;;;;3.13;2.43;;;;;;;;;;5122137;28;20226;-64
2023/10/06 03:17:58;;;;;;;4.23;2.57;;;;;;;;;;5108872;28;20292;-63
2023/10/06 03:20:29;;;;;;;6.17;2.87;;;;;;;;;;5122410;28;20635;-63
2023/10/06 03:22:57;;;;;;;3.53;2.53;;;;;;;;;;5118770;28;20202;-63
2023/10/06 03:25:28;;;;;;;5.77;2.73;;;;;;;;;;5118857;28;20264;-63
2023/10/06 03:27:57;;;;;;;3.80;2.37;;;;;;;;;;5112193;28;20383;-64
2023/10/06 03:30:28;;;;;;;5.33;3.00;;;;;;;;;;5117369;28;20304;-64
2023/10/06 03:32:57;;;;;;;5.20;3.00;;;;;;;;;;5118673;28;20686;-64
2023/10/06 03:35:36;;;;;;;5.67;2.50;;;;;;;;;;5112713;28;20201;-64
2023/10/06 03:38:27;;;;;;;5.50;2.73;;;;;;;;;;5114781;27;20205;-63
2023/10/06 03:41:09;;;;;;;4.77;2.80;;;;;;;;;;5115813;28;20301;-64
2023/10/06 03:43:40;;;;;;;6.83;2.73;;;;;;;;;;5117041;28;20230;-64
2023/10/06 03:46:12;;;;;;;4.87;2.80;;;;;;;;;;5118089;28;20567;-65
2023/10/06 03:48:42;;;;;;;3.10;2.33;;;;;;;;;;5118977;28;20380;-65
2023/10/06 03:51:11;;;;;;;9.27;3.27;;;;;;;;;;5113618;28;20224;-64
2023/10/06 03:53:40;;;;;;;5.17;3.13;;;;;;;;;;5121130;28;20232;-64
2023/10/06 03:56:08;;;;;;;4.60;2.87;;;;;;;;;;5121014;28;20221;-64
2023/10/06 03:58:36;;;;;;;6.60;3.27;;;;;;;;;;5121072;28;20205;-64
2023/10/06 04:01:09;;;;;;;6.07;2.73;;;;;;;;;;5121034;28;20687;-65
2023/10/06 04:03:39;;;;;;;11.47;3.10;;;;;;;;;;5120947;28;20287;-64
2023/10/06 04:06:12;;;;;;;10.17;3.27;;;;;;;;;;5120758;28;20200;-65
2023/10/06 04:08:44;;;;;;;5.43;2.80;;;;;;;;;;5120961;28;20284;-64
2023/10/06 04:11:14;;;;;;;4.87;2.23;;;;;;;;;;5120355;28;20229;-65
2023/10/06 04:13:43;;;;;;;3.23;2.53;;;;;;;;;;5120929;28;20219;-64
2023/10/06 04:16:13;;;;;;;5.33;2.53;;;;;;;;;;5121052;28;20204;-65
2023/10/06 04:18:47;;;;;;;4.27;2.80;;;;;;;;;;5120964;28;20272;-65
2023/10/06 04:21:16;;;;;;;5.13;2.50;;;;;;;;;;5120682;28;20220;-65
2023/10/06 04:23:44;;;;;;;5.00;2.37;;;;;;;;;;5120555;28;20204;-64
2023/10/06 04:26:14;;;;;;;3.47;2.67;;;;;;;;;;5120778;28;20204;-64
2023/10/06 04:28:45;;;;;;;5.43;2.40;;;;;;;;;;5121094;28;20640;-64
2023/10/06 04:31:15;;;;;;;4.33;2.33;;;;;;;;;;5120195;28;20281;-64
2023/10/06 04:33:45;;;;;;;3.17;2.10;;;;;;;;;;5120652;28;20208;-65
2023/10/06 04:36:20;;;;;;;5.77;2.50;;;;;;;;;;5120216;28;20233;-64
2023/10/06 04:38:49;;;;;;;2.80;1.80;;;;;;;;;;5120114;28;20362;-64
2023/10/06 04:41:20;;;;;;;4.90;2.70;;;;;;;;;;5119986;28;20304;-65
2023/10/06 04:43:48;;;;;;;3.57;2.07;;;;;;;;;;5115011;28;20204;-66
2023/10/06 04:46:16;;;;;;;4.30;2.10;;;;;;;;;;5125699;27;20216;-65
2023/10/06 04:48:47;;;;;;;3.60;1.93;;;;;;;;;;5123364;27;20201;-63
2023/10/06 04:51:16;;;;;;;3.87;2.73;;;;;;;;;;5119768;28;20585;-64
2023/10/06 04:53:45;;;;;;;4.83;2.10;;;;;;;;;;5119901;28;20236;-64
2023/10/06 04:56:14;;;;;;;7.13;2.40;;;;;;;;;;5119497;28;20692;-63
2023/10/06 04:58:42;;;;;;;3.30;2.00;;;;;;;;;;5120327;28;20215;-64
2023/10/06 05:01:11;;;;;;;4.27;2.20;;;;;;;;;;5119936;28;20217;-64
2023/10/06 05:03:43;;;;;;;5.83;2.40;;;;;;;;;;5119705;28;20570;-63
2023/10/06 05:06:16;;;;;;;5.70;2.73;;;;;;;;;;5119445;28;20291;-63
2023/10/06 05:08:47;;;;;;;6.07;2.40;;;;;;;;;;5117761;27;20230;-63
2023/10/06 05:11:17;;;;;;;4.27;2.47;;;;;;;;;;5118500;28;20887;-63
2023/10/06 05:13:47;;;;;;;2.63;2.00;;;;;;;;;;5119507;27;20303;-63
2023/10/06 05:16:16;;;;;;;4.17;2.23;;;;;;;;;;5118477;28;20208;-64
2023/10/06 05:18:44;;;;;;;7.73;2.57;;;;;;;;;;5119377;28;20209;-64
2023/10/06 05:21:15;;;;;;;3.27;2.20;;;;;;;;;;5119307;28;20244;-64
2023/10/06 05:23:45;;;;;;;4.23;2.90;;;;;;;;;;5119037;28;20613;-64
2023/10/06 05:26:14;;;;;;;4.60;2.20;;;;;;;;;;5118817;28;20204;-62
2023/10/06 05:28:44;;;;;;;4.20;2.50;;;;;;;;;;5114505;28;20229;-63
2023/10/06 05:31:12;;;;;;;7.80;2.57;;;;;;;;;;5108464;28;20231;-63
2023/10/06 05:33:41;;;;;;;4.10;2.80;;;;;;;;;;5108491;28;20198;-61
2023/10/06 05:36:10;;;;;;;3.53;2.43;;;;;;;;;;5119298;28;20287;-61
2023/10/06 05:38:40;;;;;;;3.33;2.40;;;;;;;;;;5119110;28;20257;-61
2023/10/06 05:41:11;;;;;;;5.87;2.87;;;;;;;;;;5118664;28;20223;-62
2023/10/06 05:43:40;;;;;;;6.13;3.17;;;;;;;;;;5119087;28;20205;-61
2023/10/06 05:46:09;;;;;;;10.87;3.50;;;;;;;;;;5119110;28;20292;-62
2023/10/06 05:48:38;;;;;;;6.83;3.43;;;;;;;;;;5118832;28;20262;-61
2023/10/06 05:51:08;;;;;;;10.40;3.77;;;;;;;;;;5118783;28;20232;-60
2023/10/06 05:53:42;;;;;;;6.97;2.97;;;;;;;;;;5118415;28;20258;-60
2023/10/06 05:56:11;;;;;;;4.03;2.87;;;;;;;;;;5118777;28;20648;-59
2023/10/06 05:58:40;;;;;;;5.27;3.50;;;;;;;;;;5118685;28;20249;-61
2023/10/06 06:01:13;;;;;;;7.97;3.80;;;;;;;;;;5118702;28;20221;-61
2023/10/06 06:03:45;;;;;;;8.30;3.23;;;;;;;;;;5118636;28;20209;-62
2023/10/06 06:06:16;;;;;;;10.50;4.17;;;;;;;;;;5108258;28;20204;-61
2023/10/06 06:08:47;;;;;;;8.77;4.30;;;;;;;;;;5118641;28;20246;-61
2023/10/06 06:11:17;;;;;;;13.07;4.53;;;;;;;;;;5118418;28;20233;-61
2023/10/06 06:13:45;;;;;;;8.93;4.23;;;;;;;;;;5118858;28;20209;-61
2023/10/06 06:16:25;;;;;;;10.60;4.53;;;;;;;;;;5119130;28;20236;-62
2023/10/06 06:18:54;;;;;;;12.80;4.80;;;;;;;;;;5118684;28;20215;-60
2023/10/06 06:21:24;;;;;;;9.80;4.73;;;;;;;;;;5118661;28;20247;-61
2023/10/06 06:23:55;;;;;;;16.53;4.90;;;;;;;;;;5118505;28;20232;-62
2023/10/06 06:26:24;;;;;;;10.63;4.83;;;;;;;;;;5118255;28;20205;-62
2023/10/06 06:28:52;;;;;;;9.73;5.13;;;;;;;;;;5116878;28;20212;-62
2023/10/06 06:31:21;;;;;;;7.43;4.90;;;;;;;;;;5117952;28;20637;-62
2023/10/06 06:33:55;;;;;;;10.10;4.10;;;;;;;;;;5117985;28;20253;-62
2023/10/06 06:36:25;;;;;;;14.07;4.30;;;;;;;;;;5118488;28;20215;-62
2023/10/06 06:38:54;;;;;;;8.43;4.07;;;;;;;;;;5131161;27;20270;-62
2023/10/06 06:41:22;;;;;;;6.80;4.53;;;;;;;;;;5113987;28;20308;-62
2023/10/06 06:43:57;;;;;;;8.73;4.30;;;;;;;;;;5115725;28;20531;-62
2023/10/06 06:46:27;;;;;;;10.07;4.53;;;;;;;;;;5118185;28;20287;-62
2023/10/06 06:48:55;;;;;;;10.07;3.87;;;;;;;;;;5118280;28;20315;-62
2023/10/06 06:51:27;;;;;;;7.80;3.90;;;;;;;;;;5118027;28;20235;-62
2023/10/06 06:53:57;;;;;;;6.50;3.70;;;;;;;;;;5117965;28;20248;-62
2023/10/06 06:56:28;;;;;;;10.03;3.83;;;;;;;;;;5117694;28;20254;-62
2023/10/06 06:58:56;;;;;;;7.90;3.73;;;;;;;;;;5118103;28;20204;-62
2023/10/06 07:01:24;;;;;;;7.00;3.77;;;;;;;;;;5118055;28;20224;-62
2023/10/06 07:03:52;;;;;;;7.37;3.50;;;;;;;;;;5118120;28;20283;-62
2023/10/06 07:06:21;;;;;;;9.00;3.50;;;;;;;;;;5118270;28;20208;-61
2023/10/06 07:08:49;;;;;;;4.67;3.33;;;;;;;;;;5118066;28;20295;-62
2023/10/06 07:11:19;;;;;;;6.57;4.00;;;;;;;;;;5117733;28;20229;-61
2023/10/06 07:13:47;;;;;;;6.73;4.00;;;;;;;;;;5117791;28;20204;-62
2023/10/06 07:16:15;;;;;;;5.87;3.63;;;;;;;;;;5117810;28;20249;-62
2023/10/06 07:18:43;;;;;;;8.20;3.93;;;;;;;;;;5117645;28;20702;-61
2023/10/06 07:21:11;;;;;;;8.10;4.20;;;;;;;;;;5117909;28;20278;-62
2023/10/06 07:23:39;;;;;;;5.83;3.47;;;;;;;;;;5117859;28;20268;-62
2023/10/06 07:26:11;;;;;;;7.73;3.90;;;;;;;;;;5117524;28;20611;-64
2023/10/06 07:28:40;;;;;;;7.40;3.70;;;;;;;;;;5117999;28;20247;-63
2023/10/06 07:31:12;;;;;;;5.37;4.03;;;;;;;;;;5117760;28;20235;-62
2023/10/06 07:33:42;;;;;;;10.00;3.93;;;;;;;;;;5117439;28;20278;-64
2023/10/06 07:36:14;;;;;;;9.60;4.30;;;;;;;;;;5117458;28;20209;-62
2023/10/06 07:38:42;;;;;;;8.10;3.87;;;;;;;;;;5117839;28;20236;-62
2023/10/06 07:41:10;;;;;;;8.33;4.00;;;;;;;;;;5121318;28;20224;-63
2023/10/06 07:43:40;;;;;;;7.40;3.37;;;;;;;;;;5121421;28;20212;-64
2023/10/06 07:46:10;;;;;;;6.73;4.63;;;;;;;;;;5121142;28;20311;-64
2023/10/06 07:48:39;;;;;;;7.77;3.23;;;;;;;;;;5121201;28;20656;-63
2023/10/06 07:51:08;;;;;;;11.13;3.30;;;;;;;;;;5121412;28;20278;-64
2023/10/06 07:53:38;;;;;;;5.77;3.53;;;;;;;;;;5120992;28;20247;-63
2023/10/06 07:56:07;;;;;;;8.23;3.77;;;;;;;;;;5120960;28;20705;-63
2023/10/06 07:58:37;;;;;;;7.87;3.17;;;;;;;;;;5121368;28;20209;-63
2023/10/06 08:01:08;;;;;;;3.20;2.47;;;;;;;;;;5121110;28;20232;-63
2023/10/06 08:03:38;;;;;;;5.17;2.90;;;;;;;;;;5120999;27;20204;-63
2023/10/06 08:06:06;;;;;;;6.87;3.00;;;;;;;;;;5120940;28;20292;-65
2023/10/06 08:08:34;;;;;;;5.63;3.00;;;;;;;;;;5120776;28;20250;-64
2023/10/06 08:11:03;;;;;;;5.23;3.20;;;;;;;;;;5120438;28;20251;-64
2023/10/06 08:13:33;;;;;;;9.30;3.73;;;;;;;;;;5120913;28;20284;-65
2023/10/06 08:16:01;;;;;;;7.30;2.73;;;;;;;;;;5121101;28;20268;-65
2023/10/06 08:18:31;;;;;;;3.57;2.70;;;;;;;;;;5120391;28;20300;-65
2023/10/06 08:21:00;;;;;;;6.77;3.43;;;;;;;;;;5120649;28;20224;-66
2023/10/06 08:23:29;;;;;;;8.90;3.40;;;;;;;;;;5120310;28;20684;-65
2023/10/06 08:25:57;;;;;;;9.30;2.97;;;;;;;;;;5120408;28;20272;-65
2023/10/06 08:28:31;;;;;;;6.23;2.93;;;;;;;;;;5120465;28;20285;-66
2023/10/06 08:31:02;;;;;;;9.10;2.97;;;;;;;;;;5120645;28;20232;-65
2023/10/06 08:33:32;;;;;;;8.13;2.97;;;;;;;;;;5120457;28;20235;-66
2023/10/06 08:36:08;;;;;;;5.97;3.40;;;;;;;;;;5120696;28;20247;-66
2023/10/06 08:38:36;;;;;;;7.07;2.70;;;;;;;;;;5120322;28;20286;-65
2023/10/06 08:41:05;;;;;;;11.03;2.70;;;;;;;;;;5120055;28;20235;-66
2023/10/06 08:43:36;;;;;;;5.10;3.00;;;;;;;;;;5109119;28;20281;-66
2023/10/06 08:46:04;;;;;;;9.43;3.10;;;;;;;;;;5120327;28;20287;-65
2023/10/06 08:48:36;;;;;;;8.90;3.00;;;;;;;;;;5119992;28;20247;-65
2023/10/06 08:51:07;;;;;;;5.23;3.10;;;;;;;;;;5118999;28;20247;-65
2023/10/06 08:53:37;;;;;;;8.63;3.17;;;;;;;;;;5119772;28;20275;-66
2023/10/06 08:56:05;;;;;;;7.77;2.90;;;;;;;;;;5119769;28;20660;-66
2023/10/06 08:58:35;;;;;;;6.33;3.00;;;;;;;;;;5114249;28;20209;-65
2023/10/06 09:01:05;;;;;;;8.83;3.20;;;;;;;;;;5119283;28;20227;-65
2023/10/06 09:03:33;;;;;;;6.53;3.47;;;;;;;;;;5120091;28;20205;-65
2023/10/06 09:06:04;;;;;;;3.73;2.93;;;;;;;;;;5120019;28;20248;-65
2023/10/06 09:08:39;;;;;;;11.63;3.50;;;;;;;;;;5119601;28;20209;-65
2023/10/06 09:11:07;;;;;;;5.13;2.97;;;;;;;;;;5119587;28;20226;-66
2023/10/06 09:13:36;;;;;;;9.83;3.60;;;;;;;;;;5119866;28;20250;-65
2023/10/06 09:16:06;;;;;;;6.93;3.27;;;;;;;;;;5119491;28;20213;-65
2023/10/06 09:18:35;;;;;;;5.67;3.03;;;;;;;;;;5119575;28;20204;-65
2023/10/06 09:21:13;;;;;;;6.13;2.90;;;;;;;;;;5119528;28;20772;-65
2023/10/06 09:23:41;;;;;;;5.67;3.07;;;;;;;;;;5119514;28;20212;-65
2023/10/06 09:26:11;;;;;;;6.40;2.90;;;;;;;;;;5119321;28;20258;-65
2023/10/06 09:28:48;;;;;;;8.40;3.10;;;;;;;;;;5119358;28;20231;-65
2023/10/06 09:31:18;;;;;;;7.83;3.00;;;;;;;;;;5119598;28;20252;-65
2023/10/06 09:33:48;;;;;;;41.23;30.70;;;;;;;;;;5119248;28;20282;-65
2023/10/06 09:36:21;;;;;;;7.63;3.80;;;;;;;;;;5119156;28;20652;-65
2023/10/06 09:39:14;;;;;;;7.83;3.40;;;;;;;;;;5107633;28;20209;-65
2023/10/06 09:41:42;;;;;;;8.47;2.73;;;;;;;;;;5118823;28;20232;-65
2023/10/06 09:44:11;;;;;;;17.73;16.07;;;;;;;;;;5118993;28;20204;-66
2023/10/06 09:46:42;;;;;;;8.30;6.40;;;;;;;;;;5119358;28;20277;-65
2023/10/06 09:49:15;;;;;;;6.07;2.87;;;;;;;;;;5118996;28;20208;-65
2023/10/06 09:51:46;;;;;;;5.27;2.73;;;;;;;;;;5118745;28;20225;-66
2023/10/06 09:54:15;;;;;;;5.83;2.50;;;;;;;;;;5118607;28;20605;-65
2023/10/06 09:56:43;;;;;;;3.63;1.97;;;;;;;;;;5118687;28;20239;-65
2023/10/06 09:59:12;;;;;;;8.77;2.50;;;;;;;;;;5118778;28;20728;-65
2023/10/06 10:01:42;;;;;;;5.87;2.37;;;;;;;;;;5105142;28;20228;-63
2023/10/06 10:04:11;;;;;;;5.50;2.60;;;;;;;;;;5118814;28;20201;-65
2023/10/06 10:06:43;;;;;;;4.90;2.50;;;;;;;;;;5118686;28;20644;-65
2023/10/06 10:09:16;;;;;;;5.33;2.53;;;;;;;;;;5118627;28;20291;-63
2023/10/06 10:11:46;;;;;;;6.10;2.80;;;;;;;;;;5118172;28;20328;-66
2023/10/06 10:14:36;;;;;;;7.20;2.27;;;;;;;;;;5118494;28;20314;-67
2023/10/06 10:17:13;;;;;;;4.47;2.67;;;;;;;;;;5109349;27;20337;-67
2023/10/06 10:19:44;;;;;;;3.70;2.33;;;;;;;;;;5118536;28;20215;-67
2023/10/06 10:22:13;;;;;;;7.17;2.60;;;;;;;;;;5118279;28;20633;-66
2023/10/06 10:24:44;;;;;;;4.47;2.20;;;;;;;;;;5118512;28;20200;-66
2023/10/06 10:27:17;;;;;;;10.07;2.30;;;;;;;;;;5118585;28;20209;-67
2023/10/06 10:29:45;;;;;;;7.57;2.50;;;;;;;;;;5118323;28;20213;-66
2023/10/06 10:32:12;;;;;;;5.13;2.70;;;;;;;;;;5118237;28;20564;-65
2023/10/06 10:34:59;;;;;;;4.73;2.37;;;;;;;;;;5118136;28;20224;-66
2023/10/06 10:37:27;;;;;;;7.43;3.63;;;;;;;;;;5118152;28;20192;-66
2023/10/06 10:39:56;;;;;;;5.00;3.03;;;;;;;;;;5115072;28;20276;-66
2023/10/06 10:42:37;;;;;;;5.63;2.80;;;;;;;;;;5118238;28;20216;-68
2023/10/06 10:45:24;;;;;;;5.50;2.93;;;;;;;;;;5118488;28;20235;-67
2023/10/06 10:47:52;;;;;;;5.70;3.13;;;;;;;;;;5117938;28;20633;-66
2023/10/06 10:50:20;;;;;;;7.40;2.20;;;;;;;;;;5117383;28;20220;-65
2023/10/06 10:52:48;;;;;;;5.87;2.30;;;;;;;;;;5106961;28;20560;-67
2023/10/06 10:55:23;;;;;;;4.23;2.80;;;;;;;;;;5111610;28;20205;-64
2023/10/06 10:57:51;;;;;;;3.03;2.17;;;;;;;;;;5115764;28;20196;-65
2023/10/06 11:00:20;;;;;;;7.17;2.43;;;;;;;;;;5114727;28;20244;-65
2023/10/06 11:03:04;;;;;;;4.57;2.27;;;;;;;;;;5116769;28;20209;-64
2023/10/06 11:05:32;;;;;;;4.63;2.30;;;;;;;;;;5117985;28;20205;-64
2023/10/06 11:08:01;;;;;;;5.53;2.47;;;;;;;;;;5118004;28;20236;-64
2023/10/06 11:10:33;;;;;;;4.67;2.17;;;;;;;;;;5117687;28;20311;-65
2023/10/06 11:13:18;;;;;;;3.43;1.80;;;;;;;;;;5109765;28;20719;-63
2023/10/06 11:15:48;;;;;;;4.33;2.53;;;;;;;;;;5120500;28;20304;-64
2023/10/06 11:18:18;;;;;;;3.53;1.97;;;;;;;;;;5120265;28;20299;-64
2023/10/06 11:21:05;;;;;;;7.87;2.40;;;;;;;;;;5119990;27;20236;-64
2023/10/06 11:23:42;;;;;;;5.57;3.60;;;;;;;;;;5120181;28;20205;-64
2023/10/06 11:26:12;;;;;;;6.20;2.50;;;;;;;;;;5120089;28;20232;-64
2023/10/06 11:28:44;;;;;;;5.90;2.07;;;;;;;;;;5120894;27;20205;-64
2023/10/06 11:31:12;;;;;;;5.53;2.53;;;;;;;;;;5121559;28;20259;-65
2023/10/06 11:33:40;;;;;;;2.17;1.97;;;;;;;;;;5121764;28;20224;-65
2023/10/06 11:36:08;;;;;;;2.93;1.93;;;;;;;;;;5121387;28;20205;-65
2023/10/06 11:38:37;;;;;;;4.10;1.70;;;;;;;;;;5121273;28;20288;-64
2023/10/06 11:41:05;;;;;;;7.90;2.00;;;;;;;;;;5121323;28;20634;-64
2023/10/06 11:43:35;;;;;;;4.40;2.17;;;;;;;;;;5121486;28;20698;-63
2023/10/06 11:46:04;;;;;;;3.63;2.30;;;;;;;;;;5121647;28;20219;-65
2023/10/06 11:48:34;;;;;;;4.57;1.93;;;;;;;;;;5121532;28;20254;-65
2023/10/06 11:51:06;;;;;;;3.73;2.13;;;;;;;;;;5121504;28;20227;-64
2023/10/06 11:53:35;;;;;;;3.13;1.40;;;;;;;;;;5120844;28;20276;-65
2023/10/06 11:56:07;;;;;;;6.30;1.97;;;;;;;;;;5121044;28;20243;-63
2023/10/06 11:58:39;;;;;;;4.20;2.00;;;;;;;;;;5121007;27;20203;-64
2023/10/06 12:01:07;;;;;;;3.17;2.00;;;;;;;;;;5121204;28;20278;-64
2023/10/06 12:03:39;;;;;;;6.37;1.93;;;;;;;;;;5120948;28;20723;-63
2023/10/06 12:06:11;;;;;;;5.70;1.80;;;;;;;;;;5121200;28;20205;-63
2023/10/06 12:08:43;;;;;;;3.37;1.67;;;;;;;;;;5120825;28;20200;-64
2023/10/06 12:11:12;;;;;;;2.47;1.57;;;;;;;;;;5120401;28;20933;-65
2023/10/06 12:13:41;;;;;;;2.17;1.63;;;;;;;;;;5120710;28;20603;-64
2023/10/06 12:16:13;;;;;;;5.90;4.13;;;;;;;;;;5121035;28;20296;-65
2023/10/06 12:18:43;;;;;;;3.30;1.87;;;;;;;;;;5120618;28;20660;-64
2023/10/06 12:21:13;;;;;;;3.10;1.83;;;;;;;;;;5120827;28;20254;-64
2023/10/06 12:23:42;;;;;;;4.20;1.40;;;;;;;;;;5120388;28;20233;-64
2023/10/06 12:26:10;;;;;;;2.63;1.70;;;;;;;;;;5120430;28;20205;-63
2023/10/06 12:28:39;;;;;;;2.20;1.50;;;;;;;;;;5120746;27;20292;-64
2023/10/06 12:31:08;;;;;;;4.60;2.47;;;;;;;;;;5120199;28;20660;-65
2023/10/06 12:33:36;;;;;;;2.97;1.80;;;;;;;;;;5120647;28;20215;-64
2023/10/06 12:36:08;;;;;;;2.27;1.80;;;;;;;;;;5120582;28;20205;-63
2023/10/06 12:38:37;;;;;;;2.80;1.40;;;;;;;;;;5107074;28;20669;-65
2023/10/06 12:41:06;;;;;;;3.07;1.50;;;;;;;;;;5120150;28;20224;-63
2023/10/06 12:43:35;;;;;;;3.87;2.00;;;;;;;;;;5120460;28;20207;-64
2023/10/06 12:46:04;;;;;;;2.33;1.30;;;;;;;;;;5120323;28;20224;-64
2023/10/06 12:48:38;;;;;;;4.83;1.80;;;;;;;;;;5120305;28;20217;-65
2023/10/06 12:51:11;;;;;;;5.90;2.03;;;;;;;;;;5120072;28;20257;-64
2023/10/06 12:53:39;;;;;;;12.00;2.50;;;;;;;;;;5119925;28;20290;-64
2023/10/06 12:56:09;;;;;;;6.37;2.30;;;;;;;;;;5119730;28;20307;-63
2023/10/06 12:58:37;;;;;;;11.37;2.33;;;;;;;;;;5120073;28;20216;-64
2023/10/06 13:01:07;;;;;;;9.57;2.20;;;;;;;;;;5119880;28;20221;-63
2023/10/06 13:03:38;;;;;;;3.17;2.23;;;;;;;;;;5119797;27;20235;-64
2023/10/06 13:06:07;;;;;;;5.50;2.00;;;;;;;;;;5119706;28;20291;-64
2023/10/06 13:08:38;;;;;;;2.30;1.50;;;;;;;;;;5119532;28;20210;-64
2023/10/06 13:11:06;;;;;;;4.37;1.70;;;;;;;;;;5119569;28;20260;-66
2023/10/06 13:13:34;;;;;;;4.37;1.50;;;;;;;;;;5108732;28;20204;-64
2023/10/06 13:16:08;;;;;;;1.87;1.57;;;;;;;;;;5119658;28;20316;-64
2023/10/06 13:18:38;;;;;;;4.37;1.70;;;;;;;;;;5119685;28;20214;-63
2023/10/06 13:21:07;;;;;;;7.10;1.97;;;;;;;;;;5117627;28;20227;-64
2023/10/06 13:23:37;;;;;;;4.37;2.00;;;;;;;;;;5110971;28;20287;-63
2023/10/06 13:26:05;;;;;;;4.20;2.60;;;;;;;;;;5119311;28;20204;-65
2023/10/06 13:28:33;;;;;;;3.07;2.03;;;;;;;;;;5119610;28;20669;-63
2023/10/06 13:31:04;;;;;;;3.67;1.90;;;;;;;;;;5119600;28;20239;-65
2023/10/06 13:33:33;;;;;;;4.40;2.17;;;;;;;;;;5119595;28;20271;-65
2023/10/06 13:36:03;;;;;;;4.43;2.10;;;;;;;;;;5119178;28;20228;-65
2023/10/06 13:38:36;;;;;;;3.07;1.63;;;;;;;;;;5118764;28;20302;-64
2023/10/06 13:41:04;;;;;;;3.80;1.77;;;;;;;;;;5118897;27;20233;-65
2023/10/06 13:43:32;;;;;;;3.47;1.70;;;;;;;;;;5119331;28;20211;-65
2023/10/06 13:46:00;;;;;;;7.30;2.30;;;;;;;;;;5118891;28;20241;-65
2023/10/06 13:48:31;;;;;;;6.77;1.90;;;;;;;;;;5119189;28;20266;-65
2023/10/06 13:50:59;;;;;;;2.07;1.50;;;;;;;;;;5119182;28;20257;-63
2023/10/06 13:53:29;;;;;;;4.77;1.83;;;;;;;;;;5118518;28;20268;-64
2023/10/06 13:55:58;;;;;;;2.23;1.53;;;;;;;;;;5118476;27;20267;-64
2023/10/06 13:58:27;;;;;;;8.77;2.00;;;;;;;;;;5118966;28;20220;-64
2023/10/06 14:00:57;;;;;;;6.30;2.33;;;;;;;;;;5118861;28;20257;-66
2023/10/06 14:03:25;;;;;;;2.73;1.97;;;;;;;;;;5118923;28;20205;-65
2023/10/06 14:05:55;;;;;;;2.90;1.70;;;;;;;;;;5118997;28;20230;-65
2023/10/06 14:08:25;;;;;;;5.17;2.27;;;;;;;;;;5118724;28;20288;-65
2023/10/06 14:10:54;;;;;;;4.47;1.97;;;;;;;;;;5118191;28;20272;-64
2023/10/06 14:13:25;;;;;;;3.60;3.17;;;;;;;;;;5118593;28;20208;-64
2023/10/06 14:15:58;;;;;;;5.17;2.33;;;;;;;;;;5118404;27;20767;-65
2023/10/06 14:18:29;;;;;;;4.37;2.47;;;;;;;;;;5118656;28;20214;-66
2023/10/06 14:20:58;;;;;;;3.57;1.90;;;;;;;;;;5118497;28;20252;-65
2023/10/06 14:23:29;;;;;;;4.37;1.80;;;;;;;;;;5118068;28;20202;-65
2023/10/06 14:26:00;;;;;;;2.90;1.60;;;;;;;;;;5117556;28;20283;-65
2023/10/06 14:28:29;;;;;;;7.20;2.57;;;;;;;;;;5117181;28;20198;-66
2023/10/06 14:31:07;;;;;;;6.00;2.40;;;;;;;;;;5112286;28;20225;-66
2023/10/06 14:33:39;;;;;;;6.73;1.90;;;;;;;;;;5115606;28;20194;-66
2023/10/06 14:47:28;;;;;;;8.73;2.43;;;;;;;;;;5026704;28;20198;-69
2023/10/06 14:49:58;;;;;;;6.10;2.50;;;;;;;;;;5074951;28;20723;-70
2023/10/06 14:52:31;;;;;;;2.70;1.53;;;;;;;;;;5111348;28;20200;-69
2023/10/06 14:55:00;;;;;;;5.47;1.97;;;;;;;;;;5111078;28;20228;-69
2023/10/06 14:57:29;;;;;;;4.17;2.07;;;;;;;;;;5113815;28;20231;-69
2023/10/06 14:59:57;;;;;;;6.30;1.97;;;;;;;;;;5116754;28;20210;-70
2023/10/06 15:02:25;;;;;;;4.50;1.97;;;;;;;;;;5122276;28;20667;-68
2023/10/06 15:04:54;;;;;;;4.13;1.93;;;;;;;;;;5122566;28;20238;-69
2023/10/06 15:07:22;;;;;;;8.80;2.60;;;;;;;;;;5122531;28;20218;-70
2023/10/06 15:09:51;;;;;;;3.67;1.77;;;;;;;;;;5122036;28;20239;-70
2023/10/06 15:12:21;;;;;;;3.27;1.90;;;;;;;;;;5121906;28;20537;-70
2023/10/06 15:14:50;;;;;;;3.13;1.50;;;;;;;;;;5119948;28;20293;-66